createdAt,value
2023-05-09T00:00:14.454Z,27.40
2023-05-09T00:02:47.542Z,27.40
2023-05-09T00:05:17.315Z,27.40
2023-05-09T00:07:47.248Z,27.50
2023-05-09T00:10:17.647Z,27.50
2023-05-09T00:12:47.411Z,27.50
2023-05-09T00:15:17.213Z,27.60
2023-05-09T00:17:47.557Z,27.60
2023-05-09T00:20:17.320Z,27.60
2023-05-09T00:22:47.004Z,27.70
2023-05-09T00:25:16.837Z,27.70
2023-05-09T00:27:46.710Z,27.80
2023-05-09T00:30:16.455Z,27.80
2023-05-09T00:32:46.892Z,27.90
2023-05-09T00:35:16.716Z,27.90
2023-05-09T00:37:46.462Z,28.00
2023-05-09T00:40:16.287Z,28.00
2023-05-09T00:42:45.970Z,28.00
2023-05-09T00:45:15.706Z,28.10
2023-05-09T00:47:45.715Z,28.10
2023-05-09T00:50:16.502Z,28.10
2023-05-09T00:52:46.248Z,28.20
2023-05-09T00:55:17.536Z,28.20
2023-05-09T00:57:47.197Z,28.30
2023-05-09T01:02:59.819Z,28.40
2023-05-09T01:08:40.103Z,28.50
2023-05-09T01:11:27.386Z,28.60
2023-05-09T01:14:24.678Z,28.60
2023-05-09T01:17:12.569Z,28.60
2023-05-09T01:19:55.842Z,28.70
2023-05-09T01:25:54.975Z,28.80
2023-05-09T01:28:58.474Z,28.90
2023-05-09T01:31:30.565Z,29.00
2023-05-09T01:34:04.672Z,29.00
2023-05-09T01:36:37.698Z,29.00
2023-05-09T01:39:08.265Z,29.10
2023-05-09T01:44:29.229Z,29.20
2023-05-09T01:47:02.800Z,29.30
2023-05-09T01:49:34.862Z,29.30
2023-05-09T01:52:09.121Z,29.40
2023-05-09T01:54:42.083Z,29.40
2023-05-09T01:57:14.066Z,29.50
2023-05-09T01:59:46.165Z,29.50
2023-05-09T02:02:16.769Z,29.60
2023-05-09T02:04:47.293Z,29.70
2023-05-09T02:07:18.106Z,29.70
2023-05-09T02:09:48.519Z,29.80
2023-05-09T02:12:18.174Z,29.90
2023-05-09T02:14:50.117Z,29.90
2023-05-09T02:17:20.825Z,30.00
2023-05-09T02:19:50.572Z,30.10
2023-05-09T02:22:20.206Z,30.10
2023-05-09T02:24:49.898Z,30.20
2023-05-09T02:27:20.968Z,30.20
2023-05-09T02:29:53.586Z,30.20
2023-05-09T02:32:31.037Z,30.20
2023-05-09T02:35:02.919Z,30.30
2023-05-09T02:37:37.144Z,30.30
2023-05-09T02:40:10.785Z,30.40
2023-05-09T02:42:40.386Z,30.50
2023-05-09T02:45:12.368Z,30.60
2023-05-09T02:47:42.549Z,30.50
2023-05-09T02:50:19.146Z,30.60
2023-05-09T02:52:49.094Z,30.60
2023-05-09T02:55:20.175Z,30.70
2023-05-09T02:57:56.237Z,30.70
2023-05-09T03:00:34.199Z,30.80
2023-05-09T03:03:04.888Z,30.90
2023-05-09T03:05:34.505Z,30.90
2023-05-09T03:08:04.034Z,30.90
2023-05-09T03:13:15.672Z,31.00
2023-05-09T03:15:45.350Z,31.10
2023-05-09T03:18:15.241Z,31.20
2023-05-09T03:23:26.941Z,31.30
2023-05-09T03:25:56.696Z,31.30
2023-05-09T03:28:26.306Z,31.40
2023-05-09T03:30:55.823Z,31.50
2023-05-09T03:33:25.300Z,31.50
2023-05-09T03:38:37.280Z,31.70
2023-05-09T03:41:07.023Z,31.80
2023-05-09T03:46:18.730Z,31.90
2023-05-09T03:48:48.300Z,31.90
2023-05-09T03:51:17.860Z,32.10
2023-05-09T03:53:51.396Z,32.10
2023-05-09T03:56:21.649Z,32.30
2023-05-09T03:58:51.350Z,32.50
2023-05-09T04:01:21.757Z,32.60
2023-05-09T04:03:53.749Z,32.70
2023-05-09T04:11:48.940Z,32.90
2023-05-09T04:14:18.662Z,33.00
2023-05-09T04:16:48.340Z,33.00
2023-05-09T04:19:18.517Z,33.20
2023-05-09T04:21:48.286Z,33.20
2023-05-09T04:24:17.938Z,33.30
2023-05-09T04:26:47.912Z,33.30
2023-05-09T04:29:17.766Z,33.30
2023-05-09T04:31:47.481Z,33.30
2023-05-09T04:34:17.248Z,33.50
2023-05-09T04:36:47.362Z,33.50
2023-05-09T04:39:17.121Z,33.60
2023-05-09T04:41:49.408Z,33.70
2023-05-09T04:44:21.214Z,33.80
2023-05-09T04:46:52.345Z,33.80
2023-05-09T04:49:21.964Z,33.80
2023-05-09T04:51:52.797Z,33.70
2023-05-09T04:54:23.088Z,33.70
2023-05-09T04:56:56.172Z,33.60
2023-05-09T04:59:33.012Z,33.60
2023-05-09T05:02:02.970Z,33.70
2023-05-09T05:04:33.445Z,33.80
2023-05-09T05:07:03.161Z,33.90
2023-05-09T05:09:32.816Z,34.00
2023-05-09T05:12:04.155Z,34.10
2023-05-09T05:14:37.112Z,34.20
2023-05-09T05:17:06.909Z,34.30
2023-05-09T05:19:36.849Z,34.30
2023-05-09T05:22:06.442Z,34.20
2023-05-09T05:24:36.061Z,34.20
2023-05-09T05:27:05.774Z,34.20
2023-05-09T05:29:35.396Z,34.30
2023-05-09T05:32:05.144Z,34.40
2023-05-09T05:34:35.129Z,34.50
2023-05-09T05:37:05.639Z,34.70
2023-05-09T05:39:35.423Z,34.70
2023-05-09T05:42:05.052Z,34.80
2023-05-09T05:44:34.765Z,34.90
2023-05-09T05:47:04.434Z,35.00
2023-05-09T05:49:34.044Z,35.00
2023-05-09T05:52:03.704Z,35.00
2023-05-09T05:54:33.505Z,35.00
2023-05-09T05:57:04.061Z,34.90
2023-05-09T05:59:33.726Z,34.90
2023-05-09T06:02:03.463Z,34.90
2023-05-09T06:04:33.605Z,35.00
2023-05-09T06:07:03.346Z,35.00
2023-05-09T06:09:33.028Z,35.10
2023-05-09T06:12:02.778Z,35.20
2023-05-09T06:14:32.294Z,35.30
2023-05-09T06:17:02.522Z,35.40
2023-05-09T06:19:32.381Z,35.50
2023-05-09T06:22:03.694Z,35.50
2023-05-09T06:24:36.186Z,35.60
2023-05-09T06:27:06.753Z,35.50
2023-05-09T06:29:36.574Z,35.50
2023-05-09T06:32:06.420Z,35.50
2023-05-09T06:34:36.206Z,35.50
2023-05-09T06:37:07.065Z,35.60
2023-05-09T06:39:36.819Z,35.60
2023-05-09T06:42:06.614Z,35.60
2023-05-09T06:44:36.166Z,35.70
2023-05-09T06:47:06.019Z,35.70
2023-05-09T06:49:38.403Z,35.70
2023-05-09T06:52:08.035Z,35.60
2023-05-09T06:54:40.728Z,35.60
2023-05-09T06:57:10.434Z,35.50
2023-05-09T06:59:42.818Z,35.40
2023-05-09T07:02:16.061Z,35.30
2023-05-09T07:04:46.581Z,35.20
2023-05-09T07:07:18.101Z,35.10
2023-05-09T07:09:49.240Z,35.10
2023-05-09T07:12:20.639Z,35.00
2023-05-09T07:14:50.388Z,35.00
2023-05-09T07:17:24.231Z,35.10
2023-05-09T07:19:55.394Z,35.10
2023-05-09T07:22:25.014Z,35.10
2023-05-09T07:24:54.619Z,35.20
2023-05-09T07:27:24.347Z,35.30
2023-05-09T07:29:54.460Z,35.40
2023-05-09T07:32:24.418Z,35.40
2023-05-09T07:34:53.957Z,35.40
2023-05-09T07:37:24.635Z,35.50
2023-05-09T07:39:54.178Z,35.50
2023-05-09T07:42:24.008Z,35.50
2023-05-09T07:44:53.651Z,35.50
2023-05-09T07:47:23.417Z,35.50
2023-05-09T07:49:54.138Z,35.60
2023-05-09T07:52:24.042Z,35.70
2023-05-09T07:54:53.588Z,35.70
2023-05-09T07:57:24.557Z,35.70
2023-05-09T07:59:54.190Z,35.70
2023-05-09T08:02:23.780Z,35.80
2023-05-09T08:04:53.397Z,35.80
2023-05-09T08:07:26.565Z,35.80
2023-05-09T08:09:56.110Z,35.70
2023-05-09T08:12:25.800Z,35.70
2023-05-09T08:14:55.390Z,35.60
2023-05-09T08:17:25.101Z,35.60
2023-05-09T08:19:54.738Z,35.60
2023-05-09T08:22:24.326Z,35.50
2023-05-09T08:24:53.978Z,35.60
2023-05-09T08:27:23.599Z,35.50
2023-05-09T08:29:53.181Z,35.50
2023-05-09T08:32:22.942Z,35.40
2023-05-09T08:34:52.595Z,35.40
2023-05-09T08:37:22.125Z,35.40
2023-05-09T08:39:51.657Z,35.40
2023-05-09T08:42:26.226Z,35.40
2023-05-09T08:44:56.271Z,35.40
2023-05-09T08:47:27.032Z,35.40
2023-05-09T08:49:57.152Z,35.40
2023-05-09T08:52:27.028Z,35.30
2023-05-09T08:54:56.961Z,35.30
2023-05-09T08:57:28.335Z,35.30
2023-05-09T08:59:58.476Z,35.30
2023-05-09T09:02:28.298Z,35.30
2023-05-09T09:04:58.284Z,35.30
2023-05-09T09:07:31.080Z,35.30
2023-05-09T09:10:10.872Z,35.20
2023-05-09T09:12:41.607Z,35.20
2023-05-09T09:15:17.836Z,35.20
2023-05-09T09:17:50.735Z,35.20
2023-05-09T09:20:23.373Z,35.10
2023-05-09T09:22:57.589Z,35.10
2023-05-09T09:25:27.475Z,35.10
2023-05-09T09:27:57.202Z,35.00
2023-05-09T09:30:28.351Z,35.00
2023-05-09T09:33:01.752Z,35.00
2023-05-09T09:35:31.487Z,35.00
2023-05-09T09:38:01.309Z,34.90
2023-05-09T09:40:32.006Z,34.80
2023-05-09T09:43:01.692Z,34.80
2023-05-09T09:45:31.436Z,34.70
2023-05-09T09:48:01.137Z,34.50
2023-05-09T09:50:30.946Z,34.20
2023-05-09T09:53:02.203Z,33.90
2023-05-09T09:55:34.297Z,33.70
2023-05-09T09:58:03.962Z,33.60
2023-05-09T10:00:34.486Z,33.50
2023-05-09T10:03:04.136Z,33.20
2023-05-09T10:05:36.188Z,32.90
2023-05-09T10:08:09.421Z,32.60
2023-05-09T10:10:40.527Z,32.40
2023-05-09T10:13:13.610Z,32.10
2023-05-09T10:15:53.637Z,31.90
2023-05-09T10:18:30.059Z,31.60
2023-05-09T10:21:05.779Z,31.40
2023-05-09T10:23:40.422Z,31.20
2023-05-09T10:26:25.024Z,31.10
2023-05-09T10:29:02.071Z,31.00
2023-05-09T10:31:39.477Z,30.80
2023-05-09T10:34:12.612Z,30.60
2023-05-09T10:36:42.452Z,30.40
2023-05-09T10:39:12.406Z,30.00
2023-05-09T10:41:42.922Z,29.40
2023-05-09T10:44:13.292Z,29.00
2023-05-09T10:46:43.177Z,28.60
2023-05-09T10:49:13.354Z,28.20
2023-05-09T10:51:43.712Z,27.90
2023-05-09T10:54:30.112Z,27.70
2023-05-09T10:57:01.204Z,27.60
2023-05-09T10:59:44.479Z,27.30
2023-05-09T11:02:22.663Z,27.00
2023-05-09T11:05:17.337Z,26.70
2023-05-09T11:07:47.469Z,26.50
2023-05-09T11:10:31.104Z,26.20
2023-05-09T11:13:02.592Z,26.00
2023-05-09T11:15:32.825Z,25.70
2023-05-09T11:18:11.523Z,25.60
2023-05-09T11:20:48.772Z,25.40
2023-05-09T11:23:29.092Z,25.40
2023-05-09T11:26:09.698Z,25.40
2023-05-09T11:28:40.818Z,25.50
2023-05-09T11:31:18.769Z,25.60
2023-05-09T11:33:56.724Z,25.80
2023-05-09T11:36:35.138Z,25.90
2023-05-09T11:39:10.349Z,26.00
2023-05-09T11:41:44.085Z,26.10
2023-05-09T11:55:03.825Z,26.20
2023-05-09T11:57:33.480Z,26.20
2023-05-09T12:00:03.979Z,26.20
2023-05-09T12:02:34.049Z,26.20
2023-05-09T12:05:18.562Z,26.20
2023-05-09T12:07:49.626Z,26.20
2023-05-09T12:10:22.596Z,26.20
2023-05-09T12:12:54.121Z,26.20
2023-05-09T12:15:24.730Z,26.10
2023-05-09T12:18:07.347Z,26.00
2023-05-09T12:20:59.542Z,26.00
2023-05-09T12:23:29.275Z,26.00
2023-05-09T12:25:59.545Z,26.10
2023-05-09T12:28:30.245Z,26.20
2023-05-09T12:31:00.777Z,26.20
2023-05-09T12:33:30.866Z,26.20
2023-05-09T12:36:11.876Z,26.20
2023-05-09T12:38:41.575Z,26.10
2023-05-09T12:41:33.835Z,26.00
2023-05-09T12:44:07.185Z,26.00
2023-05-09T12:46:37.554Z,26.00
2023-05-09T12:49:07.614Z,26.10
2023-05-09T12:51:38.594Z,26.00
2023-05-09T12:54:12.604Z,26.10
2023-05-09T12:56:45.886Z,26.10
2023-05-09T12:59:17.271Z,26.20
2023-05-09T13:01:48.110Z,26.20
2023-05-09T13:04:17.828Z,26.20
2023-05-09T13:06:57.248Z,26.10
2023-05-09T13:09:29.207Z,25.90
2023-05-09T13:11:59.042Z,25.80
2023-05-09T13:14:29.451Z,25.70
2023-05-09T13:16:59.148Z,25.60
2023-05-09T13:19:29.160Z,25.60
2023-05-09T13:21:58.705Z,25.70
2023-05-09T13:24:28.424Z,25.70
2023-05-09T13:26:58.115Z,25.80
2023-05-09T13:29:27.681Z,25.90
2023-05-09T13:31:58.567Z,25.90
2023-05-09T13:34:28.420Z,25.90
2023-05-09T13:36:57.977Z,25.90
2023-05-09T13:39:27.644Z,25.90
2023-05-09T13:41:57.790Z,25.80
2023-05-09T13:44:27.577Z,25.90
2023-05-09T13:47:02.727Z,25.90
2023-05-09T13:49:32.450Z,25.90
2023-05-09T13:52:02.141Z,25.90
2023-05-09T13:54:36.773Z,26.00
2023-05-09T13:57:07.921Z,26.00
2023-05-09T13:59:38.172Z,26.00
2023-05-09T14:02:13.012Z,26.00
2023-05-09T14:04:44.030Z,26.00
2023-05-09T14:07:15.422Z,26.00
2023-05-09T14:09:48.158Z,26.00
2023-05-09T14:12:20.958Z,26.00
2023-05-09T14:14:50.722Z,25.90
2023-05-09T14:17:20.593Z,25.90
2023-05-09T14:19:50.346Z,25.80
2023-05-09T14:22:20.149Z,25.70
2023-05-09T14:24:50.048Z,25.60
2023-05-09T14:27:21.195Z,25.50
2023-05-09T14:29:54.384Z,25.40
2023-05-09T14:32:24.086Z,25.40
2023-05-09T14:34:54.172Z,25.30
2023-05-09T14:37:23.989Z,25.40
2023-05-09T14:39:54.833Z,25.30
2023-05-09T14:42:24.580Z,25.40
2023-05-09T14:44:54.299Z,25.40
2023-05-09T14:47:29.768Z,25.40
2023-05-09T14:50:00.949Z,25.50
2023-05-09T14:52:33.980Z,25.50
2023-05-09T14:55:03.997Z,25.40
2023-05-09T14:57:34.046Z,25.40
2023-05-09T15:00:16.633Z,25.30
2023-05-09T15:02:47.077Z,25.20
2023-05-09T15:05:16.852Z,25.10
2023-05-09T15:07:49.877Z,25.00
2023-05-09T15:13:05.958Z,25.00
2023-05-09T15:15:35.937Z,25.00
2023-05-09T15:18:05.657Z,25.00
2023-05-09T15:20:37.755Z,25.00
2023-05-09T15:23:20.704Z,25.00
2023-05-09T15:25:53.677Z,25.10
2023-05-09T15:28:23.439Z,25.10
2023-05-09T15:30:53.113Z,25.20
2023-05-09T15:33:23.928Z,25.20
2023-05-09T15:35:58.720Z,25.20
2023-05-09T15:38:29.285Z,25.30
2023-05-09T15:40:59.051Z,25.30
2023-05-09T15:43:31.850Z,25.30
2023-05-09T15:46:01.575Z,25.30
2023-05-09T15:48:40.010Z,25.40
2023-05-09T15:51:11.129Z,25.40
2023-05-09T15:53:41.791Z,25.40
2023-05-09T15:56:11.895Z,25.40
2023-05-09T15:58:46.830Z,25.50
2023-05-09T16:01:18.965Z,25.50
2023-05-09T16:03:49.928Z,25.50
2023-05-09T16:06:19.840Z,25.50
2023-05-09T16:08:49.434Z,25.40
2023-05-09T16:11:19.266Z,25.40
2023-05-09T16:13:49.060Z,25.30
2023-05-09T16:16:18.829Z,25.20
2023-05-09T16:18:50.122Z,25.20
2023-05-09T16:21:21.375Z,25.10
2023-05-09T16:23:51.103Z,25.10
2023-05-09T16:26:20.697Z,25.00
2023-05-09T16:28:51.620Z,25.00
2023-05-09T16:31:21.646Z,24.90
2023-05-09T16:33:51.474Z,24.90
2023-05-09T16:36:21.112Z,24.90
2023-05-09T16:38:50.821Z,24.80
2023-05-09T16:41:20.428Z,24.80
2023-05-09T16:43:50.121Z,24.80
2023-05-09T16:46:20.883Z,24.80
2023-05-09T16:48:52.776Z,24.80
2023-05-09T16:51:22.501Z,24.80
2023-05-09T16:53:52.162Z,24.70
2023-05-09T16:56:21.835Z,24.70
2023-05-09T16:58:51.691Z,24.70
2023-05-09T17:01:21.259Z,24.70
2023-05-09T17:03:52.078Z,24.70
2023-05-09T17:06:21.733Z,24.80
2023-05-09T17:08:51.491Z,24.70
2023-05-09T17:11:21.638Z,24.70
2023-05-09T17:13:51.280Z,24.70
2023-05-09T17:16:21.324Z,24.70
2023-05-09T17:18:51.032Z,24.70
2023-05-09T17:21:21.917Z,24.80
2023-05-09T17:23:51.603Z,24.80
2023-05-09T17:26:21.647Z,24.90
2023-05-09T17:28:51.484Z,24.90
2023-05-09T17:31:21.133Z,24.90
2023-05-09T17:33:51.027Z,24.90
2023-05-09T17:36:20.819Z,24.90
2023-05-09T17:38:50.490Z,24.90
2023-05-09T17:41:20.108Z,24.90
2023-05-09T17:43:49.878Z,24.90
2023-05-09T17:46:19.828Z,24.90
2023-05-09T17:48:49.916Z,24.90
2023-05-09T17:51:19.559Z,24.90
2023-05-09T17:53:49.292Z,24.90
2023-05-09T17:56:19.103Z,24.90
2023-05-09T17:58:49.535Z,24.90
2023-05-09T18:01:19.278Z,24.90
2023-05-09T18:03:49.600Z,24.90
2023-05-09T18:06:19.885Z,24.90
2023-05-09T18:08:49.930Z,24.90
2023-05-09T18:11:19.665Z,24.90
2023-05-09T18:13:49.297Z,24.90
2023-05-09T18:16:18.912Z,24.90
2023-05-09T18:18:48.692Z,24.90
2023-05-09T18:21:18.275Z,24.90
2023-05-09T18:23:47.912Z,24.90
2023-05-09T18:26:17.508Z,24.90
2023-05-09T18:28:47.062Z,25.00
2023-05-09T18:31:16.814Z,25.00
2023-05-09T18:33:46.543Z,25.00
2023-05-09T18:36:17.014Z,25.00
2023-05-09T18:38:46.532Z,25.10
2023-05-09T18:41:17.373Z,25.10
2023-05-09T18:43:50.072Z,25.20
2023-05-09T18:46:22.425Z,25.20
2023-05-09T18:48:54.090Z,25.20
2023-05-09T18:51:23.844Z,25.20
2023-05-09T18:53:53.976Z,25.20
2023-05-09T18:56:24.925Z,25.20
2023-05-09T18:58:54.575Z,25.10
2023-05-09T19:01:26.043Z,25.10
2023-05-09T19:03:56.678Z,25.00
2023-05-09T19:06:27.900Z,24.90
2023-05-09T19:08:57.694Z,24.90
2023-05-09T19:11:27.521Z,24.80
2023-05-09T19:13:57.231Z,24.80
2023-05-09T19:16:28.123Z,24.80
2023-05-09T19:18:59.812Z,24.70
2023-05-09T19:21:29.971Z,24.70
2023-05-09T19:23:59.649Z,24.60
2023-05-09T19:26:29.424Z,24.60
2023-05-09T19:28:59.090Z,24.50
2023-05-09T19:31:28.872Z,24.50
2023-05-09T19:33:58.684Z,24.50
2023-05-09T19:36:28.415Z,24.50
2023-05-09T19:38:57.982Z,24.50
2023-05-09T19:41:27.674Z,24.50
2023-05-09T19:43:57.260Z,24.50
2023-05-09T19:46:27.045Z,24.50
2023-05-09T19:48:56.893Z,24.50
2023-05-09T19:51:26.643Z,24.50
2023-05-09T19:53:56.341Z,24.50
2023-05-09T19:56:26.083Z,24.50
2023-05-09T19:58:56.491Z,24.50
2023-05-09T20:01:27.284Z,24.50
2023-05-09T20:03:58.408Z,24.60
2023-05-09T20:06:28.320Z,24.60
2023-05-09T20:08:57.953Z,24.60
2023-05-09T20:11:29.174Z,24.60
2023-05-09T20:13:59.317Z,24.60
2023-05-09T20:16:29.185Z,24.60
2023-05-09T20:19:00.203Z,24.60
2023-05-09T20:21:29.927Z,24.60
2023-05-09T20:23:59.747Z,24.60
2023-05-09T20:26:30.683Z,24.70
2023-05-09T20:29:03.547Z,24.70
2023-05-09T20:31:34.103Z,24.60
2023-05-09T20:34:03.956Z,24.70
2023-05-09T20:36:34.204Z,24.70
2023-05-09T20:39:03.963Z,24.70
2023-05-09T20:41:33.637Z,24.70
2023-05-09T20:44:05.827Z,24.70
2023-05-09T20:46:36.982Z,24.70
2023-05-09T20:49:07.352Z,24.70
2023-05-09T20:51:37.342Z,24.80
2023-05-09T20:54:07.454Z,24.80
2023-05-09T20:56:37.365Z,24.80
2023-05-09T20:59:07.547Z,24.80
2023-05-09T21:01:38.341Z,24.90
2023-05-09T21:04:09.913Z,24.90
2023-05-09T21:06:39.901Z,24.90
2023-05-09T21:09:10.818Z,24.90
2023-05-09T21:11:41.330Z,24.90
2023-05-09T21:14:11.393Z,24.90
2023-05-09T21:16:41.142Z,24.90
2023-05-09T21:19:10.750Z,24.90
2023-05-09T21:21:40.411Z,25.00
2023-05-09T21:24:11.397Z,25.00
2023-05-09T21:26:41.047Z,25.00
2023-05-09T21:29:10.805Z,25.00
2023-05-09T21:31:40.368Z,25.00
2023-05-09T21:34:11.864Z,25.00
2023-05-09T21:36:42.797Z,25.00
2023-05-09T21:39:13.329Z,25.00
2023-05-09T21:41:44.404Z,25.00
2023-05-09T21:44:14.191Z,24.90
2023-05-09T21:46:47.593Z,25.00
2023-05-09T21:49:21.861Z,24.90
2023-05-09T21:51:51.506Z,25.00
2023-05-09T21:54:22.485Z,25.00
2023-05-09T21:56:52.193Z,25.00
2023-05-09T21:59:23.872Z,25.00
2023-05-09T22:01:53.484Z,25.00
2023-05-09T22:04:23.114Z,24.90
2023-05-09T22:06:52.842Z,24.90
2023-05-09T22:09:22.552Z,24.90
2023-05-09T22:11:53.472Z,24.90
2023-05-09T22:14:23.385Z,24.90
2023-05-09T22:16:52.866Z,24.90
2023-05-09T22:19:22.406Z,24.80
2023-05-09T22:21:51.812Z,24.80
2023-05-09T22:24:21.478Z,24.80
2023-05-09T22:26:51.034Z,24.80
2023-05-09T22:29:20.618Z,24.80
2023-05-09T22:31:50.456Z,24.80
2023-05-09T22:34:19.993Z,24.80
2023-05-09T22:36:49.560Z,24.80
2023-05-09T22:39:19.186Z,24.80
2023-05-09T22:41:48.641Z,24.80
2023-05-09T22:44:18.302Z,24.70
2023-05-09T22:46:47.888Z,24.80
2023-05-09T22:49:17.474Z,24.70
2023-05-09T22:51:47.293Z,24.70
2023-05-09T22:54:19.509Z,24.70
2023-05-09T22:56:49.252Z,24.70
2023-05-09T22:59:18.786Z,24.60
2023-05-09T23:01:48.746Z,24.60
2023-05-09T23:04:18.482Z,24.60
2023-05-09T23:06:48.223Z,24.50
2023-05-09T23:09:17.828Z,24.50
2023-05-09T23:11:47.609Z,24.50
2023-05-09T23:14:17.201Z,24.60
2023-05-09T23:16:46.995Z,24.60
2023-05-09T23:19:16.708Z,24.60
2023-05-09T23:21:46.443Z,24.70
2023-05-09T23:24:16.162Z,24.70
2023-05-09T23:26:45.777Z,24.70
2023-05-09T23:29:15.512Z,24.70
2023-05-09T23:31:45.185Z,24.70
2023-05-09T23:34:14.895Z,24.70
2023-05-09T23:36:45.071Z,24.70
2023-05-09T23:39:14.682Z,24.70
2023-05-09T23:41:44.495Z,24.70
2023-05-09T23:44:14.581Z,24.70
2023-05-09T23:46:44.252Z,24.70
2023-05-09T23:49:14.952Z,24.70
2023-05-09T23:51:44.630Z,24.70
2023-05-09T23:54:14.430Z,24.70
2023-05-09T23:56:44.095Z,24.80
2023-05-09T23:59:13.666Z,24.80
